sensor_id;sensor_type;location;lat;lon;timestamp;temperature;humidity
1678;DHT22;6034;46.864;15.216;2022-10-31T06:01:43;14.60;99.90
1678;DHT22;6034;46.864;15.216;2022-10-31T06:04:10;14.70;99.90
1678;DHT22;6034;46.864;15.216;2022-10-31T06:06:37;14.80;99.90
1678;DHT22;6034;46.864;15.216;2022-10-31T06:09:04;14.80;99.90
1678;DHT22;6034;46.864;15.216;2022-10-31T06:11:31;14.80;99.90
1678;DHT22;6034;46.864;15.216;2022-10-31T06:13:57;14.80;99.90
1678;DHT22;6034;46.864;15.216;2022-10-31T06:16:24;14.80;99.90
1678;DHT22;6034;46.864;15.216;2022-10-31T06:18:53;14.90;99.90
1678;DHT22;6034;46.864;15.216;2022-10-31T06:21:20;14.80;99.90
1678;DHT22;6034;46.864;15.216;2022-10-31T06:23:47;14.90;99.90
1678;DHT22;6034;46.864;15.216;2022-10-31T06:26:13;15.00;99.90
1678;DHT22;6034;46.864;15.216;2022-10-31T06:28:40;15.00;99.90
1678;DHT22;6034;46.864;15.216;2022-10-31T06:31:07;15.00;99.90
1678;DHT22;6034;46.864;15.216;2022-10-31T06:33:34;15.00;99.90
1678;DHT22;6034;46.864;15.216;2022-10-31T06:36:04;15.10;99.90
1678;DHT22;6034;46.864;15.216;2022-10-31T06:38:31;15.20;99.90
1678;DHT22;6034;46.864;15.216;2022-10-31T06:41:01;15.20;99.90
1678;DHT22;6034;46.864;15.216;2022-10-31T06:43:28;15.30;99.90
1678;DHT22;6034;46.864;15.216;2022-10-31T06:45:55;15.20;99.90
1678;DHT22;6034;46.864;15.216;2022-10-31T06:48:22;15.30;99.90
1678;DHT22;6034;46.864;15.216;2022-10-31T06:50:49;15.40;99.90
1678;DHT22;6034;46.864;15.216;2022-10-31T06:53:17;15.40;99.90
1678;DHT22;6034;46.864;15.216;2022-10-31T06:55:44;15.40;99.90
1678;DHT22;6034;46.864;15.216;2022-10-31T06:58:11;15.40;99.90
1678;DHT22;6034;46.864;15.216;2022-10-31T07:00:38;15.50;99.90
1678;DHT22;6034;46.864;15.216;2022-10-31T07:03:05;15.50;99.90
1678;DHT22;6034;46.864;15.216;2022-10-31T07:05:33;15.60;99.90
1678;DHT22;6034;46.864;15.216;2022-10-31T07:08:01;15.70;99.90
1678;DHT22;6034;46.864;15.216;2022-10-31T07:10:30;15.80;99.90
1678;DHT22;6034;46.864;15.216;2022-10-31T07:12:58;15.80;99.90
1678;DHT22;6034;46.864;15.216;2022-10-31T07:15:25;15.90;99.90
1678;DHT22;6034;46.864;15.216;2022-10-31T07:17:52;16.00;99.90
1678;DHT22;6034;46.864;15.216;2022-10-31T07:20:20;16.20;99.90
1678;DHT22;6034;46.864;15.216;2022-10-31T07:22:47;16.20;99.90
1678;DHT22;6034;46.864;15.216;2022-10-31T07:25:14;16.30;99.90
1678;DHT22;6034;46.864;15.216;2022-10-31T07:27:42;16.30;99.90
1678;DHT22;6034;46.864;15.216;2022-10-31T07:30:10;16.20;99.90
1678;DHT22;6034;46.864;15.216;2022-10-31T07:32:37;16.20;99.90
1678;DHT22;6034;46.864;15.216;2022-10-31T07:35:05;16.30;99.90
1678;DHT22;6034;46.864;15.216;2022-10-31T07:37:32;16.40;99.90
1678;DHT22;6034;46.864;15.216;2022-10-31T07:40:00;16.40;99.90
1678;DHT22;6034;46.864;15.216;2022-10-31T07:42:28;16.50;99.90
1678;DHT22;6034;46.864;15.216;2022-10-31T07:44:57;16.70;99.90
1678;DHT22;6034;46.864;15.216;2022-10-31T07:47:24;16.70;99.90
1678;DHT22;6034;46.864;15.216;2022-10-31T07:49:51;16.80;99.90
1678;DHT22;6034;46.864;15.216;2022-10-31T07:52:19;16.90;99.90
1678;DHT22;6034;46.864;15.216;2022-10-31T07:54:47;17.00;99.90
1678;DHT22;6034;46.864;15.216;2022-10-31T07:57:15;17.20;99.90
1678;DHT22;6034;46.864;15.216;2022-10-31T07:59:42;17.20;99.90
1678;DHT22;6034;46.864;15.216;2022-10-31T08:02:10;17.20;99.90
1678;DHT22;6034;46.864;15.216;2022-10-31T08:04:37;17.30;99.90
1678;DHT22;6034;46.864;15.216;2022-10-31T08:07:04;17.20;99.90
1678;DHT22;6034;46.864;15.216;2022-10-31T08:09:31;17.20;99.90
1678;DHT22;6034;46.864;15.216;2022-10-31T08:11:58;17.30;99.90
1678;DHT22;6034;46.864;15.216;2022-10-31T08:14:26;17.20;99.90
1678;DHT22;6034;46.864;15.216;2022-10-31T08:16:53;17.20;99.90
1678;DHT22;6034;46.864;15.216;2022-10-31T08:19:22;17.30;99.90
1678;DHT22;6034;46.864;15.216;2022-10-31T08:21:50;17.30;99.90
1678;DHT22;6034;46.864;15.216;2022-10-31T08:24:18;16.90;99.90
1678;DHT22;6034;46.864;15.216;2022-10-31T08:26:45;16.90;99.90
1678;DHT22;6034;46.864;15.216;2022-10-31T08:29:12;17.00;99.90
1678;DHT22;6034;46.864;15.216;2022-10-31T08:31:39;17.00;99.90
1678;DHT22;6034;46.864;15.216;2022-10-31T08:34:06;16.90;99.90
1678;DHT22;6034;46.864;15.216;2022-10-31T08:36:35;17.10;99.90
1678;DHT22;6034;46.864;15.216;2022-10-31T08:39:02;17.10;99.90
1678;DHT22;6034;46.864;15.216;2022-10-31T08:41:29;16.90;99.90
1678;DHT22;6034;46.864;15.216;2022-10-31T08:43:56;17.10;99.90
1678;DHT22;6034;46.864;15.216;2022-10-31T08:46:23;17.10;99.90
1678;DHT22;6034;46.864;15.216;2022-10-31T08:48:50;16.90;99.90
1678;DHT22;6034;46.864;15.216;2022-10-31T08:51:17;16.90;99.90
1678;DHT22;6034;46.864;15.216;2022-10-31T08:53:45;17.00;99.90
1678;DHT22;6034;46.864;15.216;2022-10-31T08:56:12;17.10;99.90
1678;DHT22;6034;46.864;15.216;2022-10-31T08:58:39;17.40;99.90
1678;DHT22;6034;46.864;15.216;2022-10-31T09:01:06;17.30;99.90
1678;DHT22;6034;46.864;15.216;2022-10-31T09:03:32;17.30;99.90
1678;DHT22;6034;46.864;15.216;2022-10-31T09:06:00;17.50;99.90
1678;DHT22;6034;46.864;15.216;2022-10-31T09:08:29;17.40;99.90
1678;DHT22;6034;46.864;15.216;2022-10-31T09:10:58;17.60;99.90
1678;DHT22;6034;46.864;15.216;2022-10-31T09:13:25;17.40;99.90
1678;DHT22;6034;46.864;15.216;2022-10-31T09:15:52;17.30;99.90
1678;DHT22;6034;46.864;15.216;2022-10-31T09:18:20;17.10;99.90
1678;DHT22;6034;46.864;15.216;2022-10-31T09:20:47;17.20;99.90
1678;DHT22;6034;46.864;15.216;2022-10-31T09:23:16;17.20;99.90
1678;DHT22;6034;46.864;15.216;2022-10-31T09:25:43;17.30;99.90
1678;DHT22;6034;46.864;15.216;2022-10-31T09:28:12;17.30;99.90
1678;DHT22;6034;46.864;15.216;2022-10-31T09:30:39;17.10;99.90
1678;DHT22;6034;46.864;15.216;2022-10-31T09:33:07;17.20;99.90
1678;DHT22;6034;46.864;15.216;2022-10-31T09:35:35;17.30;99.90
1678;DHT22;6034;46.864;15.216;2022-10-31T09:38:03;17.50;99.90
1678;DHT22;6034;46.864;15.216;2022-10-31T09:40:31;17.40;99.90
1678;DHT22;6034;46.864;15.216;2022-10-31T09:43:01;17.50;99.90
1678;DHT22;6034;46.864;15.216;2022-10-31T09:45:32;17.70;99.90
1678;DHT22;6034;46.864;15.216;2022-10-31T09:48:07;17.60;99.90
1678;DHT22;6034;46.864;15.216;2022-10-31T09:50:38;17.30;99.90
1678;DHT22;6034;46.864;15.216;2022-10-31T09:53:08;17.40;99.90
1678;DHT22;6034;46.864;15.216;2022-10-31T09:55:39;17.60;99.90
1678;DHT22;6034;46.864;15.216;2022-10-31T09:58:07;17.60;99.90
1678;DHT22;6034;46.864;15.216;2022-10-31T10:00:36;17.70;99.90
1678;DHT22;6034;46.864;15.216;2022-10-31T10:03:06;17.80;99.90
1678;DHT22;6034;46.864;15.216;2022-10-31T10:05:39;17.90;99.90
1678;DHT22;6034;46.864;15.216;2022-10-31T10:08:09;18.10;99.90
1678;DHT22;6034;46.864;15.216;2022-10-31T10:10:40;18.00;99.90
1678;DHT22;6034;46.864;15.216;2022-10-31T10:13:14;18.30;99.90
1678;DHT22;6034;46.864;15.216;2022-10-31T10:15:51;18.30;99.90
1678;DHT22;6034;46.864;15.216;2022-10-31T10:18:23;18.20;99.90
1678;DHT22;6034;46.864;15.216;2022-10-31T10:20:56;18.30;99.90
1678;DHT22;6034;46.864;15.216;2022-10-31T10:23:31;18.40;99.90
1678;DHT22;6034;46.864;15.216;2022-10-31T10:26:02;18.40;99.90
1678;DHT22;6034;46.864;15.216;2022-10-31T10:28:31;18.40;99.90
1678;DHT22;6034;46.864;15.216;2022-10-31T10:31:05;18.70;99.90
1678;DHT22;6034;46.864;15.216;2022-10-31T10:33:34;18.70;99.90
1678;DHT22;6034;46.864;15.216;2022-10-31T10:36:04;18.70;99.90
1678;DHT22;6034;46.864;15.216;2022-10-31T10:38:33;18.60;99.90
1678;DHT22;6034;46.864;15.216;2022-10-31T10:41:04;18.70;99.90
1678;DHT22;6034;46.864;15.216;2022-10-31T10:43:33;18.70;99.90
1678;DHT22;6034;46.864;15.216;2022-10-31T10:46:16;18.60;99.90
1678;DHT22;6034;46.864;15.216;2022-10-31T10:49:03;18.70;99.90
1678;DHT22;6034;46.864;15.216;2022-10-31T10:51:31;18.70;99.90
1678;DHT22;6034;46.864;15.216;2022-10-31T10:54:07;18.80;99.90
1678;DHT22;6034;46.864;15.216;2022-10-31T10:56:46;18.50;99.90
1678;DHT22;6034;46.864;15.216;2022-10-31T10:59:16;18.70;99.90
1678;DHT22;6034;46.864;15.216;2022-10-31T11:01:45;18.80;99.90
1678;DHT22;6034;46.864;15.216;2022-10-31T11:04:21;18.70;99.90
1678;DHT22;6034;46.864;15.216;2022-10-31T11:06:57;18.80;99.90
1678;DHT22;6034;46.864;15.216;2022-10-31T11:09:25;18.90;99.90
1678;DHT22;6034;46.864;15.216;2022-10-31T11:11:52;18.90;99.90
1678;DHT22;6034;46.864;15.216;2022-10-31T11:14:20;18.90;99.90
1678;DHT22;6034;46.864;15.216;2022-10-31T11:16:49;19.10;99.90
1678;DHT22;6034;46.864;15.216;2022-10-31T11:19:17;19.20;99.90
1678;DHT22;6034;46.864;15.216;2022-10-31T11:21:45;19.10;99.90
1678;DHT22;6034;46.864;15.216;2022-10-31T11:24:14;19.10;99.90
1678;DHT22;6034;46.864;15.216;2022-10-31T11:26:43;19.00;99.90
1678;DHT22;6034;46.864;15.216;2022-10-31T11:29:14;19.00;99.90
1678;DHT22;6034;46.864;15.216;2022-10-31T11:31:42;19.00;99.90
1678;DHT22;6034;46.864;15.216;2022-10-31T11:34:16;19.00;99.90
1678;DHT22;6034;46.864;15.216;2022-10-31T11:36:44;19.10;99.90
1678;DHT22;6034;46.864;15.216;2022-10-31T11:39:16;19.10;99.90
1678;DHT22;6034;46.864;15.216;2022-10-31T11:41:44;19.30;99.90
1678;DHT22;6034;46.864;15.216;2022-10-31T11:44:13;19.30;99.90
1678;DHT22;6034;46.864;15.216;2022-10-31T11:46:42;19.30;99.90
1678;DHT22;6034;46.864;15.216;2022-10-31T11:49:15;19.30;99.90
1678;DHT22;6034;46.864;15.216;2022-10-31T11:51:46;19.40;99.90
1678;DHT22;6034;46.864;15.216;2022-10-31T11:54:18;19.50;99.90
1678;DHT22;6034;46.864;15.216;2022-10-31T11:56:46;19.50;99.90
1678;DHT22;6034;46.864;15.216;2022-10-31T11:59:24;19.50;99.90
1678;DHT22;6034;46.864;15.216;2022-10-31T12:01:52;19.30;99.90
1678;DHT22;6034;46.864;15.216;2022-10-31T12:04:22;19.30;99.90
1678;DHT22;6034;46.864;15.216;2022-10-31T12:06:51;19.20;99.90
1678;DHT22;6034;46.864;15.216;2022-10-31T12:09:20;19.10;99.90
1678;DHT22;6034;46.864;15.216;2022-10-31T12:11:52;19.20;99.90
1678;DHT22;6034;46.864;15.216;2022-10-31T12:14:25;19.10;99.90
1678;DHT22;6034;46.864;15.216;2022-10-31T12:16:57;19.20;99.90
1678;DHT22;6034;46.864;15.216;2022-10-31T12:19:32;19.20;99.90
1678;DHT22;6034;46.864;15.216;2022-10-31T12:22:05;19.20;99.90
1678;DHT22;6034;46.864;15.216;2022-10-31T12:24:38;19.30;99.90
1678;DHT22;6034;46.864;15.216;2022-10-31T12:27:13;19.30;99.90
1678;DHT22;6034;46.864;15.216;2022-10-31T12:29:46;19.40;99.90
1678;DHT22;6034;46.864;15.216;2022-10-31T12:32:20;19.40;99.90
1678;DHT22;6034;46.864;15.216;2022-10-31T12:35:05;19.40;99.90
1678;DHT22;6034;46.864;15.216;2022-10-31T12:37:38;19.40;99.90
1678;DHT22;6034;46.864;15.216;2022-10-31T12:40:23;19.50;99.90
1678;DHT22;6034;46.864;15.216;2022-10-31T12:42:56;19.40;99.90
1678;DHT22;6034;46.864;15.216;2022-10-31T12:45:35;19.50;99.90
1678;DHT22;6034;46.864;15.216;2022-10-31T12:48:19;19.50;99.90
1678;DHT22;6034;46.864;15.216;2022-10-31T12:50:55;19.50;99.90
1678;DHT22;6034;46.864;15.216;2022-10-31T12:53:27;19.50;99.90
1678;DHT22;6034;46.864;15.216;2022-10-31T12:56:05;19.40;99.90
1678;DHT22;6034;46.864;15.216;2022-10-31T12:58:38;19.40;99.90
1678;DHT22;6034;46.864;15.216;2022-10-31T13:01:08;19.60;99.90
1678;DHT22;6034;46.864;15.216;2022-10-31T13:03:38;19.70;99.90
1678;DHT22;6034;46.864;15.216;2022-10-31T13:06:12;19.50;99.90
1678;DHT22;6034;46.864;15.216;2022-10-31T13:08:41;19.60;99.90
1678;DHT22;6034;46.864;15.216;2022-10-31T13:11:10;19.70;99.90
1678;DHT22;6034;46.864;15.216;2022-10-31T13:13:40;19.70;99.90
1678;DHT22;6034;46.864;15.216;2022-10-31T13:16:10;19.50;99.90
1678;DHT22;6034;46.864;15.216;2022-10-31T13:18:39;19.40;99.90
1678;DHT22;6034;46.864;15.216;2022-10-31T13:21:09;19.40;99.90
1678;DHT22;6034;46.864;15.216;2022-10-31T13:23:39;19.20;99.90
1678;DHT22;6034;46.864;15.216;2022-10-31T13:26:09;19.20;99.90
1678;DHT22;6034;46.864;15.216;2022-10-31T13:28:38;19.20;99.90
1678;DHT22;6034;46.864;15.216;2022-10-31T13:31:07;19.20;99.90
1678;DHT22;6034;46.864;15.216;2022-10-31T13:33:44;19.20;99.90
1678;DHT22;6034;46.864;15.216;2022-10-31T13:36:15;19.00;99.90
1678;DHT22;6034;46.864;15.216;2022-10-31T13:38:48;19.10;99.90
1678;DHT22;6034;46.864;15.216;2022-10-31T13:41:21;19.00;99.90
1678;DHT22;6034;46.864;15.216;2022-10-31T13:43:54;19.00;99.90
1678;DHT22;6034;46.864;15.216;2022-10-31T13:46:34;18.90;99.90
1678;DHT22;6034;46.864;15.216;2022-10-31T13:49:02;18.80;99.90
1678;DHT22;6034;46.864;15.216;2022-10-31T13:51:29;18.90;99.90
1678;DHT22;6034;46.864;15.216;2022-10-31T13:53:59;19.00;99.90
1678;DHT22;6034;46.864;15.216;2022-10-31T13:56:27;19.20;99.90
1678;DHT22;6034;46.864;15.216;2022-10-31T13:59:05;19.20;99.90
1678;DHT22;6034;46.864;15.216;2022-10-31T14:01:45;19.10;99.90
1678;DHT22;6034;46.864;15.216;2022-10-31T14:04:14;19.20;99.90
1678;DHT22;6034;46.864;15.216;2022-10-31T14:06:43;19.10;99.90
1678;DHT22;6034;46.864;15.216;2022-10-31T14:09:32;18.80;99.90
1678;DHT22;6034;46.864;15.216;2022-10-31T14:12:01;18.60;99.90
1678;DHT22;6034;46.864;15.216;2022-10-31T14:14:31;18.50;99.90
1678;DHT22;6034;46.864;15.216;2022-10-31T14:16:59;18.60;99.90
1678;DHT22;6034;46.864;15.216;2022-10-31T14:19:27;18.80;99.90
1678;DHT22;6034;46.864;15.216;2022-10-31T14:21:53;18.70;99.90
1678;DHT22;6034;46.864;15.216;2022-10-31T14:24:32;18.50;99.90
1678;DHT22;6034;46.864;15.216;2022-10-31T14:27:01;18.40;99.90
1678;DHT22;6034;46.864;15.216;2022-10-31T14:29:28;18.40;99.90
1678;DHT22;6034;46.864;15.216;2022-10-31T14:31:57;18.30;99.90
1678;DHT22;6034;46.864;15.216;2022-10-31T14:34:27;18.60;99.90
1678;DHT22;6034;46.864;15.216;2022-10-31T14:37:03;18.50;99.90
1678;DHT22;6034;46.864;15.216;2022-10-31T14:39:34;18.30;99.90
1678;DHT22;6034;46.864;15.216;2022-10-31T14:42:08;18.40;99.90
1678;DHT22;6034;46.864;15.216;2022-10-31T14:44:46;18.60;99.90
1678;DHT22;6034;46.864;15.216;2022-10-31T14:47:20;18.40;99.90
1678;DHT22;6034;46.864;15.216;2022-10-31T14:50:01;18.20;99.90
1678;DHT22;6034;46.864;15.216;2022-10-31T14:52:31;18.30;99.90
1678;DHT22;6034;46.864;15.216;2022-10-31T14:55:00;18.30;99.90
1678;DHT22;6034;46.864;15.216;2022-10-31T14:57:29;18.20;99.90
1678;DHT22;6034;46.864;15.216;2022-10-31T14:59:57;18.20;99.90
1678;DHT22;6034;46.864;15.216;2022-10-31T15:02:26;17.90;99.90
1678;DHT22;6034;46.864;15.216;2022-10-31T15:04:55;18.00;99.90
1678;DHT22;6034;46.864;15.216;2022-10-31T15:07:24;18.10;99.90
1678;DHT22;6034;46.864;15.216;2022-10-31T15:09:55;18.00;99.90
1678;DHT22;6034;46.864;15.216;2022-10-31T15:12:26;18.00;99.90
1678;DHT22;6034;46.864;15.216;2022-10-31T15:14:53;18.00;99.90
1678;DHT22;6034;46.864;15.216;2022-10-31T15:17:21;18.00;99.90
1678;DHT22;6034;46.864;15.216;2022-10-31T15:19:48;17.90;99.90
1678;DHT22;6034;46.864;15.216;2022-10-31T15:22:16;17.80;99.90
1678;DHT22;6034;46.864;15.216;2022-10-31T15:24:43;17.80;99.90
1678;DHT22;6034;46.864;15.216;2022-10-31T15:27:12;17.80;99.90
1678;DHT22;6034;46.864;15.216;2022-10-31T15:29:48;17.70;99.90
1678;DHT22;6034;46.864;15.216;2022-10-31T15:32:18;17.70;99.90
1678;DHT22;6034;46.864;15.216;2022-10-31T15:34:45;17.50;99.90
1678;DHT22;6034;46.864;15.216;2022-10-31T15:37:13;17.50;99.90
1678;DHT22;6034;46.864;15.216;2022-10-31T15:39:40;17.40;99.90
1678;DHT22;6034;46.864;15.216;2022-10-31T15:42:14;17.40;99.90
1678;DHT22;6034;46.864;15.216;2022-10-31T15:44:41;17.30;99.90
1678;DHT22;6034;46.864;15.216;2022-10-31T15:47:15;17.30;99.90
1678;DHT22;6034;46.864;15.216;2022-10-31T15:49:46;17.10;99.90
1678;DHT22;6034;46.864;15.216;2022-10-31T15:52:17;17.00;99.90
1678;DHT22;6034;46.864;15.216;2022-10-31T15:54:46;17.00;99.90
1678;DHT22;6034;46.864;15.216;2022-10-31T15:57:14;16.80;99.90
1678;DHT22;6034;46.864;15.216;2022-10-31T15:59:42;16.70;99.90
1678;DHT22;6034;46.864;15.216;2022-10-31T16:02:12;16.50;99.90
1678;DHT22;6034;46.864;15.216;2022-10-31T16:04:48;16.20;99.90
1678;DHT22;6034;46.864;15.216;2022-10-31T16:07:17;16.30;99.90
1678;DHT22;6034;46.864;15.216;2022-10-31T16:09:52;16.20;99.90
1678;DHT22;6034;46.864;15.216;2022-10-31T16:12:19;16.20;99.90
1678;DHT22;6034;46.864;15.216;2022-10-31T16:14:46;16.00;99.90
1678;DHT22;6034;46.864;15.216;2022-10-31T16:17:14;16.00;99.90
1678;DHT22;6034;46.864;15.216;2022-10-31T16:19:48;16.00;99.90
1678;DHT22;6034;46.864;15.216;2022-10-31T16:22:21;16.00;99.90
1678;DHT22;6034;46.864;15.216;2022-10-31T16:24:49;15.90;99.90
1678;DHT22;6034;46.864;15.216;2022-10-31T16:27:17;15.90;99.90
1678;DHT22;6034;46.864;15.216;2022-10-31T16:29:46;16.00;99.90
1678;DHT22;6034;46.864;15.216;2022-10-31T16:32:23;15.90;99.90
1678;DHT22;6034;46.864;15.216;2022-10-31T16:34:58;15.90;99.90
1678;DHT22;6034;46.864;15.216;2022-10-31T16:37:25;15.90;99.90
1678;DHT22;6034;46.864;15.216;2022-10-31T16:39:53;15.90;99.90
1678;DHT22;6034;46.864;15.216;2022-10-31T16:42:20;15.90;99.90
1678;DHT22;6034;46.864;15.216;2022-10-31T16:44:47;15.90;99.90
1678;DHT22;6034;46.864;15.216;2022-10-31T16:47:15;15.70;99.90
1678;DHT22;6034;46.864;15.216;2022-10-31T16:49:43;15.60;99.90
1678;DHT22;6034;46.864;15.216;2022-10-31T16:52:11;15.30;99.90
1678;DHT22;6034;46.864;15.216;2022-10-31T16:54:38;15.50;99.90
1678;DHT22;6034;46.864;15.216;2022-10-31T16:57:05;15.50;99.90
1678;DHT22;6034;46.864;15.216;2022-10-31T16:59:33;15.30;99.90
1678;DHT22;6034;46.864;15.216;2022-10-31T17:02:00;15.40;99.90
1678;DHT22;6034;46.864;15.216;2022-10-31T17:04:28;15.50;99.90
1678;DHT22;6034;46.864;15.216;2022-10-31T17:06:55;15.30;99.90
1678;DHT22;6034;46.864;15.216;2022-10-31T17:09:23;14.90;99.90
1678;DHT22;6034;46.864;15.216;2022-10-31T17:11:51;14.90;99.90
1678;DHT22;6034;46.864;15.216;2022-10-31T17:14:19;15.10;99.90
1678;DHT22;6034;46.864;15.216;2022-10-31T17:16:46;14.90;99.90
1678;DHT22;6034;46.864;15.216;2022-10-31T17:19:13;14.70;99.90
1678;DHT22;6034;46.864;15.216;2022-10-31T17:21:42;14.50;99.90
1678;DHT22;6034;46.864;15.216;2022-10-31T17:24:10;14.70;99.90
1678;DHT22;6034;46.864;15.216;2022-10-31T17:26:40;14.80;99.90
1678;DHT22;6034;46.864;15.216;2022-10-31T17:29:07;14.80;99.90
1678;DHT22;6034;46.864;15.216;2022-10-31T17:31:34;14.10;99.90
1678;DHT22;6034;46.864;15.216;2022-10-31T17:34:03;13.90;99.90
1678;DHT22;6034;46.864;15.216;2022-10-31T17:36:31;14.40;99.90
1678;DHT22;6034;46.864;15.216;2022-10-31T17:38:58;14.30;99.90
1678;DHT22;6034;46.864;15.216;2022-10-31T17:41:25;14.10;99.90
1678;DHT22;6034;46.864;15.216;2022-10-31T17:43:55;14.30;99.90
1678;DHT22;6034;46.864;15.216;2022-10-31T17:46:22;14.20;99.90
1678;DHT22;6034;46.864;15.216;2022-10-31T17:48:48;14.40;99.90
1678;DHT22;6034;46.864;15.216;2022-10-31T17:51:15;14.40;99.90
1678;DHT22;6034;46.864;15.216;2022-10-31T17:53:42;14.50;99.90
1678;DHT22;6034;46.864;15.216;2022-10-31T17:56:10;14.50;99.90
1678;DHT22;6034;46.864;15.216;2022-10-31T17:58:36;14.60;99.90
1678;DHT22;6034;46.864;15.216;2022-10-31T18:01:08;14.60;99.90
1678;DHT22;6034;46.864;15.216;2022-10-31T18:03:36;14.60;99.90
1678;DHT22;6034;46.864;15.216;2022-10-31T18:06:04;14.50;99.90
1678;DHT22;6034;46.864;15.216;2022-10-31T18:08:32;14.50;99.90
1678;DHT22;6034;46.864;15.216;2022-10-31T18:11:01;14.10;99.90
1678;DHT22;6034;46.864;15.216;2022-10-31T18:13:33;14.00;99.90
1678;DHT22;6034;46.864;15.216;2022-10-31T18:16:01;13.70;99.90
1678;DHT22;6034;46.864;15.216;2022-10-31T18:18:29;13.70;99.90
1678;DHT22;6034;46.864;15.216;2022-10-31T18:20:57;13.80;99.90
1678;DHT22;6034;46.864;15.216;2022-10-31T18:23:24;13.90;99.90
1678;DHT22;6034;46.864;15.216;2022-10-31T18:25:52;14.00;99.90
1678;DHT22;6034;46.864;15.216;2022-10-31T18:28:19;14.00;99.90
1678;DHT22;6034;46.864;15.216;2022-10-31T18:30:46;14.00;99.90
1678;DHT22;6034;46.864;15.216;2022-10-31T18:33:14;13.90;99.90
1678;DHT22;6034;46.864;15.216;2022-10-31T18:35:42;14.00;99.90
1678;DHT22;6034;46.864;15.216;2022-10-31T18:38:09;14.00;99.90
1678;DHT22;6034;46.864;15.216;2022-10-31T18:40:37;14.00;99.90
1678;DHT22;6034;46.864;15.216;2022-10-31T18:43:04;14.00;99.90
1678;DHT22;6034;46.864;15.216;2022-10-31T18:45:32;13.90;99.90
1678;DHT22;6034;46.864;15.216;2022-10-31T18:47:59;13.90;99.90
1678;DHT22;6034;46.864;15.216;2022-10-31T18:50:27;13.80;99.90
1678;DHT22;6034;46.864;15.216;2022-10-31T18:52:55;13.80;99.90
1678;DHT22;6034;46.864;15.216;2022-10-31T18:55:23;13.80;99.90
1678;DHT22;6034;46.864;15.216;2022-10-31T18:57:50;13.80;99.90
1678;DHT22;6034;46.864;15.216;2022-10-31T19:00:17;13.70;99.90
1678;DHT22;6034;46.864;15.216;2022-10-31T19:02:45;13.70;99.90
1678;DHT22;6034;46.864;15.216;2022-10-31T19:05:12;13.70;99.90
1678;DHT22;6034;46.864;15.216;2022-10-31T19:07:39;13.60;99.90
1678;DHT22;6034;46.864;15.216;2022-10-31T19:10:08;13.50;99.90
1678;DHT22;6034;46.864;15.216;2022-10-31T19:12:35;13.50;99.90
1678;DHT22;6034;46.864;15.216;2022-10-31T19:15:04;13.50;99.90
1678;DHT22;6034;46.864;15.216;2022-10-31T19:17:32;13.50;99.90
1678;DHT22;6034;46.864;15.216;2022-10-31T19:19:59;13.50;99.90
1678;DHT22;6034;46.864;15.216;2022-10-31T19:22:29;13.40;99.90
1678;DHT22;6034;46.864;15.216;2022-10-31T19:24:56;13.40;99.90
1678;DHT22;6034;46.864;15.216;2022-10-31T19:27:25;13.20;99.90
1678;DHT22;6034;46.864;15.216;2022-10-31T19:29:52;13.20;99.90
1678;DHT22;6034;46.864;15.216;2022-10-31T19:32:20;13.10;99.90
1678;DHT22;6034;46.864;15.216;2022-10-31T19:34:48;12.80;99.90
1678;DHT22;6034;46.864;15.216;2022-10-31T19:37:15;12.40;99.90
1678;DHT22;6034;46.864;15.216;2022-10-31T19:39:42;12.70;99.90
1678;DHT22;6034;46.864;15.216;2022-10-31T19:42:10;12.80;99.90
1678;DHT22;6034;46.864;15.216;2022-10-31T19:44:39;12.90;99.90
1678;DHT22;6034;46.864;15.216;2022-10-31T19:47:06;12.80;99.90
1678;DHT22;6034;46.864;15.216;2022-10-31T19:49:35;12.90;99.90
1678;DHT22;6034;46.864;15.216;2022-10-31T19:52:02;12.80;99.90
1678;DHT22;6034;46.864;15.216;2022-10-31T19:54:30;12.80;99.90
1678;DHT22;6034;46.864;15.216;2022-10-31T19:56:57;12.70;99.90
1678;DHT22;6034;46.864;15.216;2022-10-31T19:59:24;12.50;99.90
1678;DHT22;6034;46.864;15.216;2022-10-31T20:01:53;12.30;99.90
1678;DHT22;6034;46.864;15.216;2022-10-31T20:04:21;12.50;99.90
1678;DHT22;6034;46.864;15.216;2022-10-31T20:06:49;12.60;99.90
1678;DHT22;6034;46.864;15.216;2022-10-31T20:09:16;12.50;99.90
1678;DHT22;6034;46.864;15.216;2022-10-31T20:11:44;12.50;99.90
1678;DHT22;6034;46.864;15.216;2022-10-31T20:14:13;12.50;99.90
1678;DHT22;6034;46.864;15.216;2022-10-31T20:16:40;12.50;99.90
1678;DHT22;6034;46.864;15.216;2022-10-31T20:19:09;12.50;99.90
1678;DHT22;6034;46.864;15.216;2022-10-31T20:21:37;12.30;99.90
1678;DHT22;6034;46.864;15.216;2022-10-31T20:24:05;12.20;99.90
1678;DHT22;6034;46.864;15.216;2022-10-31T20:26:33;12.20;99.90
1678;DHT22;6034;46.864;15.216;2022-10-31T20:29:01;11.80;99.90
1678;DHT22;6034;46.864;15.216;2022-10-31T20:31:29;11.90;99.90
1678;DHT22;6034;46.864;15.216;2022-10-31T20:33:57;11.90;99.90
1678;DHT22;6034;46.864;15.216;2022-10-31T20:36:27;11.90;99.90
1678;DHT22;6034;46.864;15.216;2022-10-31T20:38:55;12.00;99.90
1678;DHT22;6034;46.864;15.216;2022-10-31T20:41:23;12.00;99.90
1678;DHT22;6034;46.864;15.216;2022-10-31T20:43:52;12.00;99.90
1678;DHT22;6034;46.864;15.216;2022-10-31T20:46:22;11.90;99.90
1678;DHT22;6034;46.864;15.216;2022-10-31T20:48:49;11.90;99.90
1678;DHT22;6034;46.864;15.216;2022-10-31T20:51:17;12.00;99.90
1678;DHT22;6034;46.864;15.216;2022-10-31T20:53:47;11.70;99.90
1678;DHT22;6034;46.864;15.216;2022-10-31T20:56:15;11.70;99.90
1678;DHT22;6034;46.864;15.216;2022-10-31T20:58:42;11.50;99.90
1678;DHT22;6034;46.864;15.216;2022-10-31T21:01:10;11.70;99.90
1678;DHT22;6034;46.864;15.216;2022-10-31T21:03:37;11.80;99.90
1678;DHT22;6034;46.864;15.216;2022-10-31T21:06:05;11.60;99.90
1678;DHT22;6034;46.864;15.216;2022-10-31T21:08:33;11.70;99.90
1678;DHT22;6034;46.864;15.216;2022-10-31T21:11:04;11.50;99.90
1678;DHT22;6034;46.864;15.216;2022-10-31T21:13:33;11.40;99.90
1678;DHT22;6034;46.864;15.216;2022-10-31T21:16:01;11.50;99.90
1678;DHT22;6034;46.864;15.216;2022-10-31T21:18:29;11.40;99.90
1678;DHT22;6034;46.864;15.216;2022-10-31T21:20:56;11.40;99.90
1678;DHT22;6034;46.864;15.216;2022-10-31T21:23:23;11.50;99.90
1678;DHT22;6034;46.864;15.216;2022-10-31T21:25:50;11.50;99.90
1678;DHT22;6034;46.864;15.216;2022-10-31T21:28:19;11.60;99.90
1678;DHT22;6034;46.864;15.216;2022-10-31T21:30:46;11.60;99.90
1678;DHT22;6034;46.864;15.216;2022-10-31T21:33:14;11.50;99.90
1678;DHT22;6034;46.864;15.216;2022-10-31T21:35:47;11.50;99.90
1678;DHT22;6034;46.864;15.216;2022-10-31T21:38:14;11.50;99.90
1678;DHT22;6034;46.864;15.216;2022-10-31T21:40:41;11.40;99.90
1678;DHT22;6034;46.864;15.216;2022-10-31T21:43:08;11.40;99.90
1678;DHT22;6034;46.864;15.216;2022-10-31T21:45:36;11.40;99.90
1678;DHT22;6034;46.864;15.216;2022-10-31T21:48:04;11.40;99.90
1678;DHT22;6034;46.864;15.216;2022-10-31T21:50:33;11.50;99.90
1678;DHT22;6034;46.864;15.216;2022-10-31T21:53:00;11.40;99.90
1678;DHT22;6034;46.864;15.216;2022-10-31T21:55:47;11.10;99.90
1678;DHT22;6034;46.864;15.216;2022-10-31T21:58:13;11.10;99.90